Time;durP1;ratioP1;P1;durP2;ratioP2;P2;SDS_P1;SDS_P2;PMS_P1;PMS_P2;Temp;Humidity;BMP_temperature;BMP_pressure;BME280_temperature;BME280_humidity;BME280_pressure;Samples;Min_cycle;Max_cycle;Signal;HPM_P1;HPM_P2
2021/12/29 00:00:08;;;;;;;3.35;3.05;;;;;;;;;;5043033;28;20025;-62
2021/12/29 00:02:33;;;;;;;4.55;3.10;;;;;;;;;;5025916;28;20108;-63
2021/12/29 00:04:58;;;;;;;2.90;2.60;;;;;;;;;;5040194;28;20609;-63
2021/12/29 00:07:25;;;;;;;3.33;2.72;;;;;;;;;;5041140;28;20037;-62
2021/12/29 00:09:50;;;;;;;3.30;3.00;;;;;;;;;;5042108;28;20120;-63
2021/12/29 00:12:23;;;;;;;3.15;2.72;;;;;;;;;;5039752;28;20112;-63
2021/12/29 00:14:48;;;;;;;2.80;2.40;;;;;;;;;;5038325;28;20041;-63
2021/12/29 00:17:14;;;;;;;3.00;2.70;;;;;;;;;;5038545;28;20021;-63
2021/12/29 00:19:39;;;;;;;3.47;2.88;;;;;;;;;;5041711;28;20026;-63
2021/12/29 00:22:04;;;;;;;3.10;2.80;;;;;;;;;;5044141;28;20056;-63
2021/12/29 00:24:30;;;;;;;3.40;3.10;;;;;;;;;;5038284;28;20483;-63
2021/12/29 00:26:55;;;;;;;2.80;2.50;;;;;;;;;;5040895;28;20013;-64
2021/12/29 00:29:20;;;;;;;3.80;3.10;;;;;;;;;;5041016;28;20022;-64
2021/12/29 00:31:46;;;;;;;2.97;2.67;;;;;;;;;;5038835;28;20063;-63
2021/12/29 00:34:11;;;;;;;2.92;2.63;;;;;;;;;;5039200;28;20613;-63
2021/12/29 00:36:36;;;;;;;3.33;3.03;;;;;;;;;;5041039;28;20040;-63
2021/12/29 00:39:02;;;;;;;2.88;2.58;;;;;;;;;;5037621;28;20053;-61
2021/12/29 00:41:27;;;;;;;3.15;2.85;;;;;;;;;;5037523;28;20377;-63
2021/12/29 00:43:54;;;;;;;3.20;2.90;;;;;;;;;;5037835;28;20087;-61
2021/12/29 00:46:19;;;;;;;2.90;2.58;;;;;;;;;;5040677;28;20397;-61
2021/12/29 00:48:47;;;;;;;3.42;3.13;;;;;;;;;;5039319;28;20030;-64
2021/12/29 00:51:12;;;;;;;3.35;3.03;;;;;;;;;;5040710;28;20444;-63
2021/12/29 00:53:38;;;;;;;2.97;2.67;;;;;;;;;;5040015;28;20037;-63
2021/12/29 00:56:04;;;;;;;3.08;2.78;;;;;;;;;;5041027;28;20039;-63
2021/12/29 00:58:31;;;;;;;3.15;2.63;;;;;;;;;;5039614;28;20068;-63
2021/12/29 01:00:57;;;;;;;3.58;3.28;;;;;;;;;;5041095;28;20021;-63
2021/12/29 01:03:23;;;;;;;3.70;3.22;;;;;;;;;;5040354;28;20030;-63
2021/12/29 01:05:49;;;;;;;3.30;3.00;;;;;;;;;;5040495;28;20095;-63
2021/12/29 01:08:15;;;;;;;3.17;2.88;;;;;;;;;;5039718;28;20036;-63
2021/12/29 01:10:44;;;;;;;3.25;2.95;;;;;;;;;;5039724;28;20127;-63
2021/12/29 01:13:11;;;;;;;2.92;2.63;;;;;;;;;;5040436;28;20025;-63
2021/12/29 01:18:27;;;;;;;3.20;2.90;;;;;;;;;;5033355;28;20037;-63
2021/12/29 01:20:53;;;;;;;3.35;3.05;;;;;;;;;;5038309;28;20051;-64
2021/12/29 01:23:19;;;;;;;2.97;2.67;;;;;;;;;;5039998;28;20042;-64
2021/12/29 01:25:44;;;;;;;3.20;2.90;;;;;;;;;;5041434;28;20054;-63
2021/12/29 01:28:10;;;;;;;3.17;2.88;;;;;;;;;;5038612;28;20378;-64
2021/12/29 01:30:35;;;;;;;6.70;3.03;;;;;;;;;;5038456;28;20466;-63
2021/12/29 01:33:06;;;;;;;3.47;3.17;;;;;;;;;;5039831;28;20052;-63
2021/12/29 01:35:33;;;;;;;3.13;2.83;;;;;;;;;;5038860;28;20028;-63
2021/12/29 01:37:59;;;;;;;3.38;3.08;;;;;;;;;;5040127;28;20030;-63
2021/12/29 01:40:25;;;;;;;3.35;3.05;;;;;;;;;;5038469;28;20086;-63
2021/12/29 01:42:51;;;;;;;5.10;2.80;;;;;;;;;;5038436;28;20066;-62
2021/12/29 01:45:16;;;;;;;3.03;2.72;;;;;;;;;;5039265;28;20064;-63
2021/12/29 01:47:42;;;;;;;3.67;3.38;;;;;;;;;;5037507;28;20065;-63
2021/12/29 01:50:10;;;;;;;3.50;3.20;;;;;;;;;;5039319;28;20041;-62
2021/12/29 01:52:39;;;;;;;7.75;3.13;;;;;;;;;;5039921;28;20029;-62
2021/12/29 01:55:11;;;;;;;3.08;2.78;;;;;;;;;;5036309;28;20033;-63
2021/12/29 01:57:37;;;;;;;2.95;2.65;;;;;;;;;;5037995;28;20036;-62
2021/12/29 02:00:07;;;;;;;2.90;2.60;;;;;;;;;;5041393;28;20608;-62
2021/12/29 02:02:32;;;;;;;3.00;2.70;;;;;;;;;;5037129;28;20048;-63
2021/12/29 02:04:57;;;;;;;3.10;2.80;;;;;;;;;;5038746;28;20037;-63
2021/12/29 02:07:23;;;;;;;3.22;2.92;;;;;;;;;;5036815;28;20074;-63
2021/12/29 02:09:48;;;;;;;3.20;2.90;;;;;;;;;;5038546;28;20021;-62
2021/12/29 02:12:16;;;;;;;3.25;2.92;;;;;;;;;;5037918;28;20522;-63
2021/12/29 02:14:41;;;;;;;3.65;3.13;;;;;;;;;;5037590;28;20029;-63
2021/12/29 02:17:07;;;;;;;3.60;3.30;;;;;;;;;;5037230;28;20024;-66
2021/12/29 02:19:32;;;;;;;3.42;2.85;;;;;;;;;;5041423;28;20071;-66
2021/12/29 02:22:09;;;;;;;3.83;3.53;;;;;;;;;;5038932;28;20072;-66
2021/12/29 02:24:44;;;;;;;3.45;3.15;;;;;;;;;;5038611;28;20063;-63
2021/12/29 02:27:12;;;;;;;2.92;2.63;;;;;;;;;;5040318;28;20049;-63
2021/12/29 02:29:40;;;;;;;3.10;2.80;;;;;;;;;;5037071;28;20048;-62
2021/12/29 02:32:06;;;;;;;3.28;2.97;;;;;;;;;;5042766;28;20021;-62
2021/12/29 02:34:33;;;;;;;3.38;3.08;;;;;;;;;;5038568;28;20109;-61
2021/12/29 02:37:01;;;;;;;2.85;2.55;;;;;;;;;;5043208;28;20025;-65
2021/12/29 02:39:30;;;;;;;3.70;3.40;;;;;;;;;;5037621;28;20501;-66
2021/12/29 02:41:56;;;;;;;3.47;3.17;;;;;;;;;;5038365;28;20249;-65
2021/12/29 02:44:27;;;;;;;3.00;2.70;;;;;;;;;;5036815;28;20025;-65
2021/12/29 02:46:55;;;;;;;3.50;3.20;;;;;;;;;;5039968;28;20037;-66
2021/12/29 02:49:20;;;;;;;3.42;3.13;;;;;;;;;;5036364;28;20030;-66
2021/12/29 02:51:47;;;;;;;3.55;2.80;;;;;;;;;;5041350;28;20191;-64
2021/12/29 02:54:14;;;;;;;3.25;2.85;;;;;;;;;;5038511;28;20036;-65
2021/12/29 02:56:39;;;;;;;2.92;2.63;;;;;;;;;;5040742;28;20052;-65
2021/12/29 02:59:04;;;;;;;3.33;3.03;;;;;;;;;;5036688;28;20037;-65
2021/12/29 03:01:30;;;;;;;3.08;2.78;;;;;;;;;;5037191;28;20107;-65
2021/12/29 03:03:57;;;;;;;2.97;2.67;;;;;;;;;;5038026;28;20072;-64
2021/12/29 03:06:24;;;;;;;3.00;2.70;;;;;;;;;;5038971;28;20656;-64
2021/12/29 03:08:50;;;;;;;2.80;2.42;;;;;;;;;;5042321;28;20041;-64
2021/12/29 03:11:15;;;;;;;3.03;2.72;;;;;;;;;;5044780;28;20120;-64
2021/12/29 03:13:41;;;;;;;3.08;2.78;;;;;;;;;;5042378;28;20107;-65
2021/12/29 03:16:07;;;;;;;3.20;2.70;;;;;;;;;;5041717;28;20061;-64
2021/12/29 03:18:33;;;;;;;3.00;2.70;;;;;;;;;;5039936;28;20477;-64
2021/12/29 03:20:59;;;;;;;3.13;2.83;;;;;;;;;;5042523;28;20056;-64
2021/12/29 03:23:25;;;;;;;3.25;2.95;;;;;;;;;;5040648;28;20029;-65
2021/12/29 03:25:51;;;;;;;3.20;2.90;;;;;;;;;;5042598;28;20048;-64
2021/12/29 03:28:18;;;;;;;3.03;2.72;;;;;;;;;;5042916;28;20040;-64
2021/12/29 03:30:48;;;;;;;3.13;2.83;;;;;;;;;;5042480;28;20116;-64
2021/12/29 03:33:13;;;;;;;3.03;2.72;;;;;;;;;;5041683;28;20355;-64
2021/12/29 03:35:42;;;;;;;3.05;2.75;;;;;;;;;;5041999;28;20033;-64
2021/12/29 03:38:12;;;;;;;2.90;2.60;;;;;;;;;;5042171;28;20025;-64
2021/12/29 03:40:38;;;;;;;2.90;2.60;;;;;;;;;;5042388;28;20025;-64
2021/12/29 03:43:05;;;;;;;3.63;3.33;;;;;;;;;;5039684;28;20037;-64
2021/12/29 03:45:31;;;;;;;3.20;2.90;;;;;;;;;;5042025;28;20024;-64
2021/12/29 03:47:57;;;;;;;3.22;2.92;;;;;;;;;;5047290;28;20025;-64
2021/12/29 03:50:22;;;;;;;3.17;2.88;;;;;;;;;;5043598;28;20035;-64
2021/12/29 03:52:48;;;;;;;3.38;3.08;;;;;;;;;;5040821;28;20355;-63
2021/12/29 03:55:14;;;;;;;4.65;3.28;;;;;;;;;;5040373;28;20128;-64
2021/12/29 03:57:40;;;;;;;3.13;2.83;;;;;;;;;;5040267;28;20434;-64
2021/12/29 04:00:09;;;;;;;3.17;2.65;;;;;;;;;;5049334;28;20035;-64
2021/12/29 04:02:35;;;;;;;3.28;2.97;;;;;;;;;;5049449;28;20471;-63
2021/12/29 04:05:02;;;;;;;2.88;2.55;;;;;;;;;;5042370;28;20041;-64
2021/12/29 04:07:28;;;;;;;3.20;2.90;;;;;;;;;;5041367;28;20030;-63
2021/12/29 04:09:53;;;;;;;2.90;2.50;;;;;;;;;;5040976;28;20709;-64
2021/12/29 04:12:19;;;;;;;3.10;2.80;;;;;;;;;;5038920;28;20347;-64
2021/12/29 04:14:44;;;;;;;2.88;2.58;;;;;;;;;;5038003;28;20033;-64
2021/12/29 04:17:12;;;;;;;2.80;2.50;;;;;;;;;;5042675;28;20033;-64
2021/12/29 04:20:54;;;;;;;2.72;2.38;;;;;;;;;;5038504;28;20035;-63
2021/12/29 04:22:31;;;;;;;3.00;2.70;;;;;;;;;;5041940;28;20055;-64
2021/12/29 04:24:57;;;;;;;3.20;2.90;;;;;;;;;;5043403;28;20033;-63
2021/12/29 04:27:25;;;;;;;2.95;2.65;;;;;;;;;;5041302;28;20037;-63
2021/12/29 04:29:51;;;;;;;2.95;2.55;;;;;;;;;;5039324;28;20036;-63
2021/12/29 04:32:17;;;;;;;3.10;2.80;;;;;;;;;;5040078;28;20033;-64
2021/12/29 04:34:42;;;;;;;3.30;2.75;;;;;;;;;;5038834;28;20047;-64
2021/12/29 04:37:08;;;;;;;2.80;2.50;;;;;;;;;;5040766;28;20041;-63
2021/12/29 04:39:33;;;;;;;3.10;2.80;;;;;;;;;;5039627;28;20090;-63
2021/12/29 04:41:59;;;;;;;2.92;2.63;;;;;;;;;;5042619;28;20352;-63
2021/12/29 04:44:24;;;;;;;2.80;2.47;;;;;;;;;;5039827;28;20029;-64
2021/12/29 04:46:51;;;;;;;2.80;2.42;;;;;;;;;;5041995;28;21751;-63
2021/12/29 04:49:22;;;;;;;3.22;2.92;;;;;;;;;;5040811;28;20033;-63
2021/12/29 04:51:55;;;;;;;2.95;2.60;;;;;;;;;;5041569;28;20371;-63
2021/12/29 04:54:20;;;;;;;3.10;2.80;;;;;;;;;;5040288;28;20060;-64
2021/12/29 04:56:46;;;;;;;3.03;2.72;;;;;;;;;;5042158;28;20037;-64
2021/12/29 04:59:12;;;;;;;2.72;2.33;;;;;;;;;;5039202;28;20060;-63
2021/12/29 05:01:38;;;;;;;3.40;3.10;;;;;;;;;;5041839;28;20063;-64
2021/12/29 05:04:03;;;;;;;3.10;2.80;;;;;;;;;;5041539;28;20072;-64
2021/12/29 05:09:13;;;;;;;2.70;2.40;;;;;;;;;;5041624;28;20021;-64
2021/12/29 05:11:38;;;;;;;3.13;2.83;;;;;;;;;;5038036;28;20035;-63
2021/12/29 05:14:04;;;;;;;2.90;2.60;;;;;;;;;;5041122;28;20423;-64
2021/12/29 05:16:29;;;;;;;2.90;2.60;;;;;;;;;;5040534;28;20047;-64
2021/12/29 05:18:57;;;;;;;3.17;2.88;;;;;;;;;;5039405;28;20112;-64
2021/12/29 05:21:25;;;;;;;3.15;2.47;;;;;;;;;;5038852;28;20029;-64
2021/12/29 05:23:51;;;;;;;3.72;2.53;;;;;;;;;;5037594;28;20473;-63
2021/12/29 05:26:16;;;;;;;3.05;2.75;;;;;;;;;;5038482;28;20078;-63
2021/12/29 05:28:42;;;;;;;2.80;2.50;;;;;;;;;;5039081;28;20059;-63
2021/12/29 05:31:07;;;;;;;3.13;2.83;;;;;;;;;;5040082;28;20479;-64
2021/12/29 05:33:32;;;;;;;3.05;2.75;;;;;;;;;;5038542;28;20048;-63
2021/12/29 05:35:58;;;;;;;2.90;2.60;;;;;;;;;;5041691;28;20051;-63
2021/12/29 05:38:23;;;;;;;3.00;2.70;;;;;;;;;;5040668;28;20028;-64
2021/12/29 05:40:50;;;;;;;4.18;3.10;;;;;;;;;;5039510;28;20040;-64
2021/12/29 05:43:16;;;;;;;2.95;2.65;;;;;;;;;;5038734;28;20098;-63
2021/12/29 05:45:41;;;;;;;3.30;2.65;;;;;;;;;;5042759;28;20037;-64
2021/12/29 05:48:07;;;;;;;3.00;2.70;;;;;;;;;;5038323;28;20075;-64
2021/12/29 05:50:33;;;;;;;4.65;3.65;;;;;;;;;;5039049;28;20056;-63
2021/12/29 05:53:00;;;;;;;4.40;2.88;;;;;;;;;;5043776;28;20029;-64
2021/12/29 05:55:26;;;;;;;3.30;3.00;;;;;;;;;;5039531;28;20071;-63
2021/12/29 05:57:52;;;;;;;2.90;2.58;;;;;;;;;;5036539;28;20044;-64
2021/12/29 06:00:20;;;;;;;3.35;3.05;;;;;;;;;;5049151;28;20043;-64
2021/12/29 06:02:46;;;;;;;3.00;2.70;;;;;;;;;;5042621;28;20080;-64
2021/12/29 06:05:11;;;;;;;2.90;2.50;;;;;;;;;;5038417;28;20024;-63
2021/12/29 06:07:37;;;;;;;6.72;3.08;;;;;;;;;;5049216;28;20041;-63
2021/12/29 06:10:04;;;;;;;2.80;2.42;;;;;;;;;;5046473;28;20029;-64
2021/12/29 06:12:30;;;;;;;2.90;2.55;;;;;;;;;;5041758;28;20040;-63
2021/12/29 06:14:55;;;;;;;5.85;3.22;;;;;;;;;;5039634;28;20029;-63
2021/12/29 06:17:21;;;;;;;2.95;2.58;;;;;;;;;;5037999;28;20144;-62
2021/12/29 06:19:47;;;;;;;3.60;3.10;;;;;;;;;;5037377;28;20459;-62
2021/12/29 06:22:12;;;;;;;2.83;2.53;;;;;;;;;;5036017;28;20117;-61
2021/12/29 06:24:39;;;;;;;3.03;2.67;;;;;;;;;;5037839;28;20032;-62
2021/12/29 06:27:05;;;;;;;2.83;2.53;;;;;;;;;;5038975;28;20064;-63
2021/12/29 06:29:31;;;;;;;2.92;2.63;;;;;;;;;;5034701;28;20064;-63
2021/12/29 06:31:56;;;;;;;2.80;2.50;;;;;;;;;;5035881;28;20468;-63
2021/12/29 06:34:22;;;;;;;2.90;2.60;;;;;;;;;;5036775;28;20036;-63
2021/12/29 06:36:47;;;;;;;3.00;2.70;;;;;;;;;;5039790;28;20128;-64
2021/12/29 06:39:13;;;;;;;2.88;2.53;;;;;;;;;;5037336;28;20033;-64
2021/12/29 06:41:38;;;;;;;3.42;2.70;;;;;;;;;;5036139;28;20040;-63
2021/12/29 06:44:05;;;;;;;3.92;2.85;;;;;;;;;;5036552;28;20033;-64
2021/12/29 06:46:30;;;;;;;2.80;2.50;;;;;;;;;;5037636;28;20814;-64
2021/12/29 06:48:56;;;;;;;3.13;2.83;;;;;;;;;;5038436;28;20136;-63
2021/12/29 06:51:21;;;;;;;2.78;2.42;;;;;;;;;;5035954;28;20032;-63
2021/12/29 06:53:47;;;;;;;2.90;2.60;;;;;;;;;;5037410;28;20025;-63
2021/12/29 06:56:12;;;;;;;2.90;2.60;;;;;;;;;;5036381;28;20052;-64
2021/12/29 06:58:38;;;;;;;3.25;2.95;;;;;;;;;;5036353;28;20033;-64
2021/12/29 07:01:05;;;;;;;5.30;3.60;;;;;;;;;;5036522;28;20037;-64
2021/12/29 07:03:30;;;;;;;2.80;2.50;;;;;;;;;;5037250;28;20447;-63
2021/12/29 07:05:56;;;;;;;3.92;2.88;;;;;;;;;;5036128;28;20029;-63
2021/12/29 07:08:21;;;;;;;3.20;2.90;;;;;;;;;;5037765;28;20052;-63
2021/12/29 07:10:47;;;;;;;2.80;2.42;;;;;;;;;;5037646;28;20030;-63
2021/12/29 07:13:13;;;;;;;3.03;2.72;;;;;;;;;;5039517;28;20375;-62
2021/12/29 07:15:38;;;;;;;2.90;2.58;;;;;;;;;;5038230;28;20040;-63
2021/12/29 07:18:04;;;;;;;5.90;3.05;;;;;;;;;;5038205;28;20490;-62
2021/12/29 07:20:30;;;;;;;3.00;2.70;;;;;;;;;;5034311;28;20052;-63
2021/12/29 07:22:56;;;;;;;2.97;2.67;;;;;;;;;;5035637;28;20033;-63
2021/12/29 07:25:22;;;;;;;4.07;2.72;;;;;;;;;;5037970;28;20104;-63
2021/12/29 07:27:48;;;;;;;4.30;3.10;;;;;;;;;;5037215;28;20025;-63
2021/12/29 07:30:14;;;;;;;3.75;3.10;;;;;;;;;;5037178;28;20033;-64
2021/12/29 07:32:39;;;;;;;3.17;2.88;;;;;;;;;;5037200;28;20043;-64
2021/12/29 07:35:05;;;;;;;2.80;2.50;;;;;;;;;;5039588;28;20068;-64
2021/12/29 07:37:31;;;;;;;2.78;2.47;;;;;;;;;;5037267;28;20037;-65
2021/12/29 07:39:56;;;;;;;3.85;3.45;;;;;;;;;;5036642;28;20029;-64
2021/12/29 07:42:21;;;;;;;3.45;3.15;;;;;;;;;;5038302;28;20036;-63
2021/12/29 07:44:49;;;;;;;2.85;2.53;;;;;;;;;;5021882;28;20056;-64
2021/12/29 07:47:14;;;;;;;3.55;3.25;;;;;;;;;;5039252;28;20041;-65
2021/12/29 07:49:40;;;;;;;3.13;2.83;;;;;;;;;;5037896;28;20037;-65
2021/12/29 07:52:05;;;;;;;3.15;2.85;;;;;;;;;;5037385;28;20629;-65
2021/12/29 07:54:31;;;;;;;3.28;2.97;;;;;;;;;;5039001;28;20071;-65
2021/12/29 07:56:56;;;;;;;3.60;3.28;;;;;;;;;;5042049;28;20478;-65
2021/12/29 07:59:22;;;;;;;3.55;3.25;;;;;;;;;;5040763;28;20107;-64
2021/12/29 08:01:48;;;;;;;3.15;2.85;;;;;;;;;;5042334;28;20417;-65
2021/12/29 08:04:15;;;;;;;3.08;2.78;;;;;;;;;;5042047;28;20035;-65
2021/12/29 08:06:41;;;;;;;2.70;2.33;;;;;;;;;;5041617;28;20167;-65
2021/12/29 08:09:12;;;;;;;6.40;3.33;;;;;;;;;;5039218;28;20128;-65
2021/12/29 08:11:39;;;;;;;2.95;2.65;;;;;;;;;;5042737;28;20056;-66
2021/12/29 08:14:05;;;;;;;3.00;2.70;;;;;;;;;;5040461;28;20025;-65
2021/12/29 08:16:30;;;;;;;2.88;2.58;;;;;;;;;;5043301;28;20048;-65
2021/12/29 08:18:56;;;;;;;4.97;3.13;;;;;;;;;;5039722;28;20033;-66
2021/12/29 08:21:21;;;;;;;3.05;2.75;;;;;;;;;;5042826;28;20047;-66
2021/12/29 08:23:46;;;;;;;3.00;2.70;;;;;;;;;;5041098;28;20116;-66
2021/12/29 08:26:12;;;;;;;3.47;3.17;;;;;;;;;;5037916;28;20051;-67
2021/12/29 08:28:38;;;;;;;3.55;3.25;;;;;;;;;;5040983;28;20029;-66
2021/12/29 08:31:04;;;;;;;4.20;2.70;;;;;;;;;;5040884;28;20541;-66
2021/12/29 08:33:29;;;;;;;3.00;2.70;;;;;;;;;;5040939;28;20278;-65
2021/12/29 08:35:55;;;;;;;3.35;3.05;;;;;;;;;;5041470;28;20324;-66
2021/12/29 08:38:20;;;;;;;4.03;3.63;;;;;;;;;;5041841;28;20028;-65
2021/12/29 08:40:46;;;;;;;3.55;2.92;;;;;;;;;;5043566;28;20045;-66
2021/12/29 08:43:14;;;;;;;3.50;2.97;;;;;;;;;;5039706;28;20111;-67
2021/12/29 08:45:42;;;;;;;3.15;2.85;;;;;;;;;;5041817;28;20234;-66
2021/12/29 08:48:09;;;;;;;4.03;2.95;;;;;;;;;;5041009;28;20039;-66
2021/12/29 08:50:34;;;;;;;3.88;3.58;;;;;;;;;;5040501;28;20047;-67
2021/12/29 08:53:05;;;;;;;2.90;2.60;;;;;;;;;;5038381;28;20422;-66
2021/12/29 08:55:34;;;;;;;3.13;2.83;;;;;;;;;;5038200;28;20036;-66
2021/12/29 08:58:00;;;;;;;3.10;2.72;;;;;;;;;;5038791;28;20506;-67
2021/12/29 09:00:26;;;;;;;3.35;3.05;;;;;;;;;;5038909;28;20053;-67
2021/12/29 09:02:51;;;;;;;3.15;2.75;;;;;;;;;;5041225;28;20458;-66
2021/12/29 09:05:18;;;;;;;3.85;3.45;;;;;;;;;;5039647;28;20094;-66
2021/12/29 09:07:45;;;;;;;2.88;2.58;;;;;;;;;;5041441;28;20040;-66
2021/12/29 09:10:11;;;;;;;3.72;3.42;;;;;;;;;;5040177;28;20136;-66
2021/12/29 09:12:37;;;;;;;3.13;2.83;;;;;;;;;;5039524;28;20086;-67
2021/12/29 09:15:05;;;;;;;3.15;2.85;;;;;;;;;;5038661;28;20525;-66
2021/12/29 09:17:31;;;;;;;3.10;2.80;;;;;;;;;;5038066;28;20025;-66
2021/12/29 09:19:56;;;;;;;3.47;2.97;;;;;;;;;;5039872;28;20032;-62
2021/12/29 09:22:22;;;;;;;2.97;2.67;;;;;;;;;;5039838;28;20060;-62
2021/12/29 09:24:49;;;;;;;3.00;2.70;;;;;;;;;;5040696;28;20053;-62
2021/12/29 09:27:16;;;;;;;3.22;2.92;;;;;;;;;;5041961;28;20112;-62
2021/12/29 09:29:42;;;;;;;3.55;3.17;;;;;;;;;;5040209;28;20037;-63
2021/12/29 09:32:09;;;;;;;3.28;2.95;;;;;;;;;;5037567;28;20037;-62
2021/12/29 09:34:34;;;;;;;3.38;3.08;;;;;;;;;;5037560;28;20041;-62
2021/12/29 09:37:01;;;;;;;3.53;3.22;;;;;;;;;;5041408;28;20036;-62
2021/12/29 09:39:27;;;;;;;3.53;3.22;;;;;;;;;;5038340;28;20017;-61
2021/12/29 09:41:53;;;;;;;3.97;3.33;;;;;;;;;;5038597;28;20111;-61
2021/12/29 09:44:19;;;;;;;3.33;3.03;;;;;;;;;;5037692;28;20047;-61
2021/12/29 09:46:44;;;;;;;3.55;3.25;;;;;;;;;;5040431;28;20038;-61
2021/12/29 09:49:10;;;;;;;4.28;3.22;;;;;;;;;;5037405;28;20083;-61
2021/12/29 09:51:35;;;;;;;3.38;3.08;;;;;;;;;;5041386;28;20052;-61
2021/12/29 09:54:01;;;;;;;3.70;3.17;;;;;;;;;;5039056;28;20037;-61
2021/12/29 09:56:27;;;;;;;3.80;3.20;;;;;;;;;;5038468;28;20099;-62
2021/12/29 09:58:53;;;;;;;3.45;3.13;;;;;;;;;;5037471;28;20044;-61
2021/12/29 10:01:20;;;;;;;4.00;3.60;;;;;;;;;;5041106;28;20021;-61
2021/12/29 10:03:46;;;;;;;4.68;3.20;;;;;;;;;;5038826;28;20457;-62
2021/12/29 10:06:13;;;;;;;5.78;3.20;;;;;;;;;;5040070;28;20049;-62
2021/12/29 10:08:41;;;;;;;11.63;3.00;;;;;;;;;;5038978;28;20071;-59
2021/12/29 10:11:10;;;;;;;3.17;2.88;;;;;;;;;;5036407;28;20148;-58
2021/12/29 10:13:41;;;;;;;3.20;2.90;;;;;;;;;;5036662;28;20052;-59
2021/12/29 10:16:12;;;;;;;3.05;2.75;;;;;;;;;;5037897;28;20088;-59
2021/12/29 10:18:41;;;;;;;3.50;3.17;;;;;;;;;;5036042;28;20043;-59
2021/12/29 10:21:13;;;;;;;3.45;2.97;;;;;;;;;;5039078;28;20030;-59
2021/12/29 10:23:42;;;;;;;6.93;3.88;;;;;;;;;;5039703;28;20033;-58
2021/12/29 10:26:10;;;;;;;2.90;2.60;;;;;;;;;;5038296;28;20475;-59
2021/12/29 10:28:37;;;;;;;3.17;2.88;;;;;;;;;;5037453;28;20045;-59
2021/12/29 10:31:11;;;;;;;3.17;2.60;;;;;;;;;;5039110;28;20119;-59
2021/12/29 10:33:46;;;;;;;3.20;2.85;;;;;;;;;;5038905;28;20506;-59
2021/12/29 10:36:24;;;;;;;10.18;3.17;;;;;;;;;;5037864;28;20041;-59
2021/12/29 10:38:58;;;;;;;3.17;2.88;;;;;;;;;;5038678;28;20656;-59
2021/12/29 10:41:24;;;;;;;3.20;2.90;;;;;;;;;;5037055;28;20060;-59
2021/12/29 10:43:57;;;;;;;2.90;2.45;;;;;;;;;;5039495;28;20071;-59
2021/12/29 10:46:24;;;;;;;3.45;3.15;;;;;;;;;;5035448;28;20101;-59
2021/12/29 10:48:52;;;;;;;3.95;3.35;;;;;;;;;;5037203;28;20037;-59
2021/12/29 10:51:25;;;;;;;3.35;2.63;;;;;;;;;;5040267;28;20116;-59
2021/12/29 10:53:50;;;;;;;2.97;2.60;;;;;;;;;;5039785;28;20041;-58
2021/12/29 10:56:25;;;;;;;4.43;3.15;;;;;;;;;;5035707;28;20035;-59
2021/12/29 10:58:53;;;;;;;2.92;2.63;;;;;;;;;;5036148;28;20072;-58
2021/12/29 11:01:20;;;;;;;2.95;2.58;;;;;;;;;;5038903;28;20025;-59
2021/12/29 11:03:58;;;;;;;2.90;2.60;;;;;;;;;;5038990;28;20119;-58
2021/12/29 11:06:25;;;;;;;2.92;2.63;;;;;;;;;;5038136;28;20378;-58
2021/12/29 11:08:57;;;;;;;2.75;2.40;;;;;;;;;;5037485;28;20458;-62
2021/12/29 11:11:32;;;;;;;2.78;2.40;;;;;;;;;;5039599;28;20374;-60
2021/12/29 11:14:26;;;;;;;7.38;3.17;;;;;;;;;;5040673;28;20029;-61
2021/12/29 11:17:08;;;;;;;3.70;2.97;;;;;;;;;;5036262;28;20048;-62
2021/12/29 11:19:36;;;;;;;4.25;3.17;;;;;;;;;;5038363;28;20728;-63
2021/12/29 11:22:13;;;;;;;3.25;2.67;;;;;;;;;;5036059;28;20474;-61
2021/12/29 11:24:40;;;;;;;3.03;2.72;;;;;;;;;;5037153;28;20102;-62
2021/12/29 11:27:25;;;;;;;2.90;2.60;;;;;;;;;;5038158;28;20060;-62
2021/12/29 11:29:58;;;;;;;3.20;2.90;;;;;;;;;;5040262;28;20155;-62
2021/12/29 11:32:30;;;;;;;3.03;2.72;;;;;;;;;;5039284;28;20033;-61
2021/12/29 11:35:01;;;;;;;3.38;2.65;;;;;;;;;;5040095;28;20025;-62
2021/12/29 11:37:26;;;;;;;2.92;2.60;;;;;;;;;;5039398;28;20366;-61
2021/12/29 11:39:52;;;;;;;3.13;2.83;;;;;;;;;;5040218;28;20031;-63
2021/12/29 11:42:18;;;;;;;3.80;3.00;;;;;;;;;;5042998;28;20455;-62
2021/12/29 11:44:44;;;;;;;2.80;2.40;;;;;;;;;;5042939;28;20075;-62
2021/12/29 11:47:10;;;;;;;5.05;3.55;;;;;;;;;;5041649;28;20053;-62
2021/12/29 11:49:36;;;;;;;5.13;3.25;;;;;;;;;;5042040;28;20099;-61
2021/12/29 11:52:16;;;;;;;2.78;2.45;;;;;;;;;;5041064;28;20025;-62
2021/12/29 11:55:03;;;;;;;4.20;2.88;;;;;;;;;;5047003;28;20035;-62
2021/12/29 11:57:30;;;;;;;6.35;2.80;;;;;;;;;;5042177;28;20129;-61
2021/12/29 12:00:12;;;;;;;3.00;2.47;;;;;;;;;;5040032;28;20078;-62
2021/12/29 12:02:39;;;;;;;3.00;2.70;;;;;;;;;;5043560;28;20114;-61
2021/12/29 12:05:08;;;;;;;3.15;2.85;;;;;;;;;;5040115;28;20178;-61
2021/12/29 12:07:34;;;;;;;3.17;2.83;;;;;;;;;;5043418;28;20099;-62
2021/12/29 12:10:07;;;;;;;2.80;2.47;;;;;;;;;;5042919;28;20040;-61
2021/12/29 12:12:41;;;;;;;2.70;2.30;;;;;;;;;;5039880;28;20041;-62
2021/12/29 12:15:08;;;;;;;3.15;2.42;;;;;;;;;;5038862;28;20122;-62
2021/12/29 12:17:35;;;;;;;2.80;2.30;;;;;;;;;;5041003;28;20087;-61
2021/12/29 12:20:03;;;;;;;3.05;2.65;;;;;;;;;;5039515;28;20036;-62
2021/12/29 12:22:29;;;;;;;2.92;2.63;;;;;;;;;;5034136;28;20078;-62
2021/12/29 12:24:54;;;;;;;2.80;2.47;;;;;;;;;;5036949;28;20119;-62
2021/12/29 12:27:39;;;;;;;3.00;2.60;;;;;;;;;;5040890;28;20107;-61
2021/12/29 12:30:12;;;;;;;2.80;2.38;;;;;;;;;;5038642;28;20060;-61
2021/12/29 12:32:48;;;;;;;3.67;2.80;;;;;;;;;;5040175;28;20074;-61
2021/12/29 12:35:28;;;;;;;3.00;2.63;;;;;;;;;;5038205;28;20103;-61
2021/12/29 12:37:53;;;;;;;3.08;2.67;;;;;;;;;;5040645;28;20476;-62
2021/12/29 12:40:25;;;;;;;3.78;3.08;;;;;;;;;;5038227;28;20065;-62
2021/12/29 12:43:19;;;;;;;3.10;2.63;;;;;;;;;;5038905;28;20931;-62
2021/12/29 12:45:47;;;;;;;2.85;2.50;;;;;;;;;;5036378;28;20434;-62
2021/12/29 12:48:15;;;;;;;3.03;2.72;;;;;;;;;;5038810;28;20108;-63
2021/12/29 12:50:42;;;;;;;2.95;2.53;;;;;;;;;;5040963;28;20067;-62
2021/12/29 12:53:08;;;;;;;3.00;2.47;;;;;;;;;;5040431;28;20028;-61
2021/12/29 12:55:46;;;;;;;3.35;2.72;;;;;;;;;;5038898;28;20045;-62
2021/12/29 12:58:13;;;;;;;3.75;3.40;;;;;;;;;;5037520;28;20128;-62
2021/12/29 13:00:47;;;;;;;3.15;2.85;;;;;;;;;;5041489;28;20037;-62
2021/12/29 13:03:15;;;;;;;2.80;2.30;;;;;;;;;;5040045;28;20091;-62
2021/12/29 13:05:42;;;;;;;5.13;2.95;;;;;;;;;;5038414;28;20095;-61
2021/12/29 13:08:14;;;;;;;3.50;2.97;;;;;;;;;;5036394;28;20029;-62
2021/12/29 13:10:47;;;;;;;3.40;3.10;;;;;;;;;;5041436;28;20032;-62
2021/12/29 13:13:17;;;;;;;3.13;2.60;;;;;;;;;;5039701;28;20084;-62
2021/12/29 13:15:45;;;;;;;5.28;3.70;;;;;;;;;;5040505;28;20041;-61
2021/12/29 13:18:12;;;;;;;3.28;2.88;;;;;;;;;;5039837;28;20044;-61
2021/12/29 13:20:38;;;;;;;2.97;2.65;;;;;;;;;;5040239;28;20040;-60
2021/12/29 13:23:09;;;;;;;3.40;2.80;;;;;;;;;;5040035;28;20037;-62
2021/12/29 13:25:40;;;;;;;2.80;2.50;;;;;;;;;;5039543;28;20467;-60
2021/12/29 13:28:12;;;;;;;6.25;3.58;;;;;;;;;;5045360;28;20025;-60
2021/12/29 13:30:45;;;;;;;6.30;2.60;;;;;;;;;;5039367;28;20124;-59
2021/12/29 13:33:12;;;;;;;3.40;2.70;;;;;;;;;;5035119;28;20060;-62
2021/12/29 13:35:41;;;;;;;4.45;2.72;;;;;;;;;;5038176;28;20033;-63
2021/12/29 13:38:08;;;;;;;2.97;2.53;;;;;;;;;;5038181;28;20029;-63
2021/12/29 13:40:38;;;;;;;2.80;2.50;;;;;;;;;;5041102;28;20025;-63
2021/12/29 13:43:12;;;;;;;2.97;2.67;;;;;;;;;;5036763;28;20025;-63
2021/12/29 13:45:39;;;;;;;3.47;2.80;;;;;;;;;;5041086;28;20622;-63
2021/12/29 13:48:05;;;;;;;3.38;3.00;;;;;;;;;;5037768;28;20037;-63
2021/12/29 13:50:31;;;;;;;2.95;2.63;;;;;;;;;;5040800;28;20037;-63
2021/12/29 13:53:04;;;;;;;3.10;2.67;;;;;;;;;;5039596;28;20037;-63
2021/12/29 13:55:39;;;;;;;2.90;2.50;;;;;;;;;;5036447;28;20033;-63
2021/12/29 13:58:05;;;;;;;3.03;2.72;;;;;;;;;;5040336;28;20024;-63
2021/12/29 14:00:33;;;;;;;3.42;2.85;;;;;;;;;;5038952;28;20412;-63
2021/12/29 14:03:00;;;;;;;3.95;3.20;;;;;;;;;;5037796;28;20106;-63
2021/12/29 14:05:41;;;;;;;3.75;3.40;;;;;;;;;;5038757;28;20021;-63
2021/12/29 14:08:10;;;;;;;3.88;2.88;;;;;;;;;;5038138;28;20509;-63
2021/12/29 14:10:35;;;;;;;4.00;3.42;;;;;;;;;;5038091;28;20651;-63
2021/12/29 14:13:12;;;;;;;2.75;2.30;;;;;;;;;;5038300;28;20037;-64
2021/12/29 14:15:37;;;;;;;3.72;3.38;;;;;;;;;;5039065;28;20037;-64
2021/12/29 14:18:22;;;;;;;3.30;2.88;;;;;;;;;;5041575;28;20099;-63
2021/12/29 14:20:49;;;;;;;4.35;3.00;;;;;;;;;;5040041;28;20868;-63
2021/12/29 14:23:15;;;;;;;3.55;3.20;;;;;;;;;;5037216;28;20086;-62
2021/12/29 14:25:43;;;;;;;3.15;2.85;;;;;;;;;;5037984;28;20033;-64
2021/12/29 14:28:19;;;;;;;2.90;2.58;;;;;;;;;;5038213;28;20037;-63
2021/12/29 14:30:56;;;;;;;3.25;2.95;;;;;;;;;;5038406;28;20029;-62
2021/12/29 14:33:24;;;;;;;3.25;2.95;;;;;;;;;;5037506;28;20029;-64
2021/12/29 14:35:52;;;;;;;3.60;3.30;;;;;;;;;;5035007;28;20033;-63
2021/12/29 14:38:17;;;;;;;3.42;2.95;;;;;;;;;;5036726;28;20044;-64
2021/12/29 14:40:43;;;;;;;3.55;3.25;;;;;;;;;;5041647;28;20029;-63
2021/12/29 14:43:19;;;;;;;3.83;3.47;;;;;;;;;;5036079;28;20037;-64
2021/12/29 14:45:51;;;;;;;3.42;3.08;;;;;;;;;;5038011;28;20029;-65
2021/12/29 14:48:16;;;;;;;3.40;2.90;;;;;;;;;;5036773;28;20029;-63
2021/12/29 14:50:43;;;;;;;3.55;3.25;;;;;;;;;;5038880;28;20477;-64